Phoenix, AZ

4:28 AM MST on September 02, 2015 (GMT -0700)
APRSWXNET | | Change Station
CLOSE
Current Station
Personal Weather Station
Location: Phoenix, AZ
Elevation: 1115 ft
Nearby Weather Stations

Elev 1115 ft 33.49 °N, 112.07 °W | Updated 36 minutes ago

Mostly Cloudy
Mostly Cloudy
84 °F
Feels Like 86 °F
N
0
Wind Variable Wind from NNE
Gusts 0.0 mph

Today
High -- | Low -- °F
--% Chance of Precip.
Yesterday
High -- | Low -- °F
Precip. -- in
6:02 AM 6:52 PM
Waning Gibbous, 81% visible
Pressure 29.82 in
Visibility 10.0 miles
Clouds Mostly Cloudy 11000 ft
Mostly Cloudy 14000 ft
Overcast 25000 ft
Heat Index 86 °F
Dew Point 65 °F
Humidity 53%
Rainfall in
Snow Depth Not available.
UV 0 out of 12
Pollen 5.10 out of 12
Air Quality Not available.
Flu Activity Not available.
METAR KPHX 021051Z 19005KT 10SM TS BKN110CB BKN140 OVC250 30/19 A2988 RMK AO2 SLP098 FRQ LTGCGIC NE-E TS NE-E MOV NE T03000194
Pressure 29.82 in
Visibility 10.0 miles
Clouds Mostly Cloudy 11000 ft
Mostly Cloudy 14000 ft
Overcast 25000 ft
Heat Index 86 °F
Dew Point 65 °F
Humidity 53%
Rainfall in
Snow Depth Not available.
UV 0 out of 12
Pollen 5.10 out of 12
Air Quality Not available.
Flu Activity Not available.
METAR KPHX 021051Z 19005KT 10SM TS BKN110CB BKN140 OVC250 30/19 A2988 RMK AO2 SLP098 FRQ LTGCGIC NE-E TS NE-E MOV NE T03000194

10-Day Weather Forecast

×

Almanac

Astronomy

Sep. 02, 2015 Rise Set
Actual Time
Civil Twilight
Nautical Twilight
Astronomical Twilight
Moon
Length of Visible Light
Length of Day
Tomorrow will be .
, % of the Moon is Illuminated

Today's Extremes

State Highs State Lows

Community

WunderPhotos

Upload Photos

1,851,736 photos uploaded!

WunderBlogs® & News

Nearby

Air Quality

  Air Quality AQ Index Pollutant
Not available.

Snow Depth

Station Depth Elevation

Earthquake Activity

City Distance Mag. Time & Date
Minimum magnitude displayed is 2.5.

Coastal Water Temperatures

Place Temperature

Stations

Nearby Weather Stations

Station Location Temp. Windchill Dew Point Humidity Wind Precip. Elev Updated Type